createdAt,value
2024-04-22T00:00:25.087Z,88.05
2024-04-22T00:02:52.276Z,88.20
2024-04-22T00:05:19.297Z,88.44
2024-04-22T00:07:46.267Z,88.76
2024-04-22T00:10:13.270Z,88.60
2024-04-22T00:12:40.388Z,88.71
2024-04-22T00:15:07.764Z,88.72
2024-04-22T00:17:34.932Z,88.88
2024-04-22T00:20:02.150Z,89.27
2024-04-22T00:22:29.229Z,89.29
2024-04-22T00:24:56.248Z,89.18
2024-04-22T00:27:23.370Z,89.73
2024-04-22T00:29:50.987Z,89.56
2024-04-22T00:32:18.191Z,89.60
2024-04-22T00:34:47.459Z,89.75
2024-04-22T00:37:14.434Z,89.81
2024-04-22T00:39:41.436Z,90.12
2024-04-22T00:42:08.421Z,90.73
2024-04-22T00:44:35.410Z,90.61
2024-04-22T00:47:02.592Z,90.49
2024-04-22T00:49:29.790Z,90.49
2024-04-22T00:51:57.077Z,90.43
2024-04-22T00:54:24.174Z,90.28
2024-04-22T00:56:51.534Z,90.54
2024-04-22T00:59:18.604Z,90.89
2024-04-22T01:01:46.457Z,90.86
2024-04-22T01:04:13.592Z,90.75
2024-04-22T01:06:40.638Z,90.99
2024-04-22T01:09:07.848Z,91.13
2024-04-22T01:11:34.989Z,90.68
2024-04-22T01:14:02.106Z,90.84
2024-04-22T01:16:29.148Z,90.80
2024-04-22T01:18:56.140Z,91.23
2024-04-22T01:21:29.540Z,90.94
2024-04-22T01:23:57.117Z,90.78
2024-04-22T01:26:25.981Z,90.83
2024-04-22T01:28:53.150Z,90.93
2024-04-22T01:31:20.270Z,91.60
2024-04-22T01:33:47.352Z,91.01
2024-04-22T01:36:14.306Z,91.45
2024-04-22T01:38:41.285Z,91.44
2024-04-22T01:41:08.256Z,91.00
2024-04-22T01:43:36.076Z,91.62
2024-04-22T01:46:06.053Z,91.12
2024-04-22T01:48:33.530Z,91.08
2024-04-22T01:51:00.500Z,91.58
2024-04-22T01:53:27.524Z,91.56
2024-04-22T01:55:57.211Z,91.85
2024-04-22T01:58:24.516Z,91.67
2024-04-22T02:00:51.547Z,91.91
2024-04-22T02:03:18.628Z,92.47
2024-04-22T02:05:45.662Z,92.27
2024-04-22T02:08:12.398Z,92.23
2024-04-22T02:10:39.154Z,92.66
2024-04-22T02:13:06.326Z,92.89
2024-04-22T02:15:33.117Z,92.58
2024-04-22T02:18:01.564Z,92.87
2024-04-22T02:20:28.360Z,92.38
2024-04-22T02:22:55.272Z,92.51
2024-04-22T02:25:21.939Z,92.46
2024-04-22T02:27:48.586Z,92.23
2024-04-22T02:30:15.303Z,92.81
2024-04-22T02:32:41.999Z,92.57
2024-04-22T02:35:08.687Z,92.33
2024-04-22T02:37:35.441Z,92.48
2024-04-22T02:40:02.162Z,92.30
2024-04-22T02:42:28.830Z,92.49
2024-04-22T02:44:55.480Z,92.42
2024-04-22T02:47:22.177Z,92.31
2024-04-22T02:49:48.867Z,92.61
2024-04-22T02:52:15.566Z,92.33
2024-04-22T02:54:42.231Z,92.48
2024-04-22T02:57:08.871Z,92.90
2024-04-22T02:59:35.526Z,92.56
2024-04-22T03:02:02.184Z,92.49
2024-04-22T03:04:28.920Z,92.38
2024-04-22T03:06:55.618Z,92.24
2024-04-22T03:09:22.376Z,91.95
2024-04-22T03:11:49.038Z,92.31
2024-04-22T03:14:15.689Z,92.44
2024-04-22T03:16:42.509Z,91.92
2024-04-22T03:19:09.283Z,91.74
2024-04-22T03:21:35.956Z,92.01
2024-04-22T03:24:03.540Z,91.67
2024-04-22T03:26:30.234Z,91.68
2024-04-22T03:28:56.891Z,91.43
2024-04-22T03:31:25.239Z,91.44
2024-04-22T03:33:51.922Z,91.86
2024-04-22T03:36:18.600Z,91.67
2024-04-22T03:38:45.243Z,92.34
2024-04-22T03:41:11.914Z,91.87
2024-04-22T03:43:38.637Z,92.43
2024-04-22T03:46:25.667Z,92.57
2024-04-22T03:49:10.968Z,93.04
2024-04-22T03:51:37.712Z,92.71
2024-04-22T03:54:04.426Z,92.83
2024-04-22T03:56:31.123Z,92.96
2024-04-22T03:58:57.785Z,92.77
2024-04-22T04:01:24.511Z,93.26
2024-04-22T04:03:51.417Z,93.21
2024-04-22T04:06:18.469Z,93.28
2024-04-22T04:08:47.877Z,93.33
2024-04-22T04:11:19.494Z,92.96
2024-04-22T04:13:47.305Z,92.80
2024-04-22T04:16:14.482Z,93.12
2024-04-22T04:18:42.422Z,92.91
2024-04-22T04:21:09.441Z,92.79
2024-04-22T04:23:36.114Z,93.19
2024-04-22T04:26:03.196Z,93.49
2024-04-22T04:28:29.944Z,92.93
2024-04-22T04:31:00.597Z,92.98
2024-04-22T04:33:27.833Z,93.97
2024-04-22T04:36:05.866Z,94.21
2024-04-22T04:38:33.498Z,94.14
2024-04-22T04:41:00.428Z,93.94
2024-04-22T04:43:27.586Z,94.45
2024-04-22T04:45:54.874Z,94.18
2024-04-22T04:48:22.510Z,94.32
2024-04-22T04:50:50.021Z,94.87
2024-04-22T04:53:17.753Z,94.69
2024-04-22T04:55:48.253Z,94.72
2024-04-22T04:58:15.184Z,94.42
2024-04-22T05:00:43.163Z,94.22
2024-04-22T05:03:10.318Z,94.13
2024-04-22T05:05:37.141Z,94.28
2024-04-22T05:08:05.134Z,94.74
2024-04-22T05:10:32.183Z,94.32
2024-04-22T05:12:58.873Z,94.30
2024-04-22T05:15:26.356Z,93.73
2024-04-22T05:17:53.073Z,94.19
2024-04-22T05:20:19.780Z,94.05
2024-04-22T05:22:46.495Z,93.79
2024-04-22T05:25:13.406Z,93.77
2024-04-22T05:27:40.134Z,94.96
2024-04-22T05:30:07.226Z,95.00
2024-04-22T05:32:34.460Z,94.16
2024-04-22T05:35:19.783Z,93.99
2024-04-22T05:37:46.565Z,94.91
2024-04-22T05:40:13.306Z,94.88
2024-04-22T05:42:40.007Z,94.46
2024-04-22T05:45:06.754Z,94.74
2024-04-22T05:47:33.608Z,94.01
2024-04-22T05:50:01.290Z,93.72
2024-04-22T05:52:28.642Z,94.15
2024-04-22T05:54:55.803Z,93.61
2024-04-22T05:57:22.577Z,93.54
2024-04-22T05:59:49.277Z,93.67
2024-04-22T06:02:16.434Z,92.85
2024-04-22T06:04:43.228Z,93.15
2024-04-22T06:07:09.984Z,92.66
2024-04-22T06:09:36.695Z,92.93
2024-04-22T06:12:14.765Z,92.84
2024-04-22T06:14:44.749Z,92.56
2024-04-22T06:17:11.596Z,92.70
2024-04-22T06:19:38.709Z,92.21
2024-04-22T06:22:05.900Z,91.67
2024-04-22T06:24:33.242Z,90.82
2024-04-22T06:27:00.288Z,90.17
2024-04-22T06:29:27.313Z,89.34
2024-04-22T06:31:54.475Z,88.12
2024-04-22T06:34:21.624Z,87.26
2024-04-22T06:36:48.714Z,86.58
2024-04-22T06:39:15.771Z,86.43
2024-04-22T06:41:42.880Z,86.01
2024-04-22T06:44:09.860Z,85.83
2024-04-22T06:46:37.033Z,85.38
2024-04-22T06:49:04.065Z,83.98
2024-04-22T06:51:31.041Z,83.91
2024-04-22T06:53:58.054Z,83.28
2024-04-22T06:56:25.063Z,82.64
2024-04-22T06:58:52.134Z,81.21
2024-04-22T07:01:27.505Z,79.67
2024-04-22T07:04:02.265Z,76.11
2024-04-22T07:06:29.361Z,77.01
2024-04-22T07:08:56.358Z,76.24
2024-04-22T07:11:23.534Z,73.16
2024-04-22T07:13:50.564Z,74.43
2024-04-22T07:16:17.868Z,73.05
2024-04-22T07:18:44.988Z,72.09
2024-04-22T07:21:12.360Z,72.61
2024-04-22T07:23:39.357Z,71.96
2024-04-22T07:26:06.432Z,72.11
2024-04-22T07:28:33.774Z,71.36
2024-04-22T07:31:01.022Z,70.53
2024-04-22T07:33:31.533Z,70.83
2024-04-22T07:36:18.365Z,69.56
2024-04-22T07:38:49.099Z,68.51
2024-04-22T07:41:16.121Z,66.80
2024-04-22T07:43:42.869Z,67.18
2024-04-22T07:46:09.581Z,65.44
2024-04-22T07:48:36.372Z,61.58
2024-04-22T07:51:04.583Z,62.56
2024-04-22T07:53:31.642Z,62.72
2024-04-22T07:55:58.567Z,61.52
2024-04-22T07:58:25.545Z,60.09
2024-04-22T08:00:54.112Z,59.21
2024-04-22T08:03:21.377Z,59.32
2024-04-22T08:05:48.311Z,59.23
2024-04-22T08:08:20.155Z,55.81
2024-04-22T08:10:47.155Z,54.76
2024-04-22T08:13:14.047Z,52.34
2024-04-22T08:15:41.138Z,54.06
2024-04-22T08:18:07.923Z,52.89
2024-04-22T08:20:35.074Z,52.18
2024-04-22T08:23:01.849Z,53.76
2024-04-22T08:25:28.852Z,52.84
2024-04-22T08:27:55.620Z,51.87
2024-04-22T08:30:22.313Z,48.92
2024-04-22T08:32:49.072Z,49.56
2024-04-22T08:35:16.148Z,51.52
2024-04-22T08:37:43.081Z,50.63
2024-04-22T08:40:10.517Z,51.78
2024-04-22T08:42:39.744Z,48.97
2024-04-22T08:45:10.132Z,50.33
2024-04-22T08:47:37.055Z,49.57
2024-04-22T08:50:04.089Z,48.19
2024-04-22T08:52:40.180Z,46.84
2024-04-22T08:55:11.577Z,45.52
2024-04-22T08:57:38.330Z,44.58
2024-04-22T09:00:05.784Z,46.41
2024-04-22T09:02:32.715Z,46.92
2024-04-22T09:05:00.575Z,47.47
2024-04-22T09:07:28.965Z,44.69
2024-04-22T09:10:14.803Z,46.97
2024-04-22T09:12:42.649Z,45.88
2024-04-22T09:15:09.747Z,45.21
2024-04-22T09:17:39.826Z,44.47
2024-04-22T09:20:07.283Z,42.66
2024-04-22T09:22:34.251Z,41.89
2024-04-22T09:25:01.248Z,39.85
2024-04-22T09:27:29.200Z,41.02
2024-04-22T09:30:05.180Z,39.72
2024-04-22T09:32:36.791Z,40.69
2024-04-22T09:35:20.842Z,40.62
2024-04-22T09:37:50.032Z,41.82
2024-04-22T09:40:18.985Z,39.80
2024-04-22T09:42:47.161Z,40.73
2024-04-22T09:45:15.603Z,41.54
2024-04-22T09:47:43.139Z,40.87
2024-04-22T09:50:10.808Z,40.79
2024-04-22T09:52:41.137Z,40.06
2024-04-22T09:55:08.709Z,41.69
2024-04-22T09:57:42.511Z,41.62
2024-04-22T10:00:12.892Z,39.15
2024-04-22T10:02:40.485Z,38.56
2024-04-22T10:05:12.577Z,42.59
2024-04-22T10:07:42.911Z,42.23
2024-04-22T10:10:13.744Z,41.17
2024-04-22T10:12:40.654Z,40.10
2024-04-22T10:15:11.758Z,40.28
2024-04-22T10:17:38.911Z,40.00
2024-04-22T10:20:07.510Z,39.90
2024-04-22T10:22:39.639Z,39.94
2024-04-22T10:25:09.167Z,38.42
2024-04-22T10:27:36.797Z,39.07
2024-04-22T10:30:08.041Z,39.15
2024-04-22T10:32:35.993Z,39.87
2024-04-22T10:35:02.739Z,39.03
2024-04-22T10:37:29.588Z,38.92
2024-04-22T10:39:56.379Z,35.89
2024-04-22T10:42:25.658Z,37.47
2024-04-22T10:44:53.289Z,35.62
2024-04-22T10:47:21.062Z,34.64
2024-04-22T10:49:48.040Z,34.12
2024-04-22T10:52:14.938Z,30.68
2024-04-22T10:54:41.693Z,30.08
2024-04-22T10:57:09.428Z,31.05
2024-04-22T10:59:36.758Z,33.04
2024-04-22T11:02:04.380Z,34.65
2024-04-22T11:04:31.538Z,35.47
2024-04-22T11:06:58.236Z,36.44
2024-04-22T11:09:25.572Z,36.92
2024-04-22T11:11:52.489Z,37.11
2024-04-22T11:14:20.304Z,37.48
2024-04-22T11:16:47.234Z,38.85
2024-04-22T11:19:20.124Z,39.72
2024-04-22T11:21:47.000Z,40.36
2024-04-22T11:24:14.078Z,40.14
2024-04-22T11:26:43.171Z,39.99
2024-04-22T11:29:10.411Z,40.46
2024-04-22T11:31:41.112Z,40.30
2024-04-22T11:34:08.439Z,40.77
2024-04-22T11:36:36.825Z,40.61
2024-04-22T11:39:14.140Z,39.93
2024-04-22T11:41:41.713Z,39.26
2024-04-22T11:44:08.732Z,38.80
2024-04-22T11:46:36.308Z,38.14
2024-04-22T11:49:03.771Z,37.65
2024-04-22T11:51:31.140Z,38.45
2024-04-22T11:53:58.696Z,38.82
2024-04-22T11:56:31.384Z,39.14
2024-04-22T11:58:58.891Z,37.02
2024-04-22T12:01:26.193Z,41.15
2024-04-22T12:03:53.516Z,41.30
2024-04-22T12:06:20.555Z,41.12
2024-04-22T12:08:47.586Z,41.50
2024-04-22T12:11:15.234Z,42.18
2024-04-22T12:13:42.365Z,42.80
2024-04-22T12:16:09.421Z,43.33
2024-04-22T12:18:36.437Z,43.25
2024-04-22T12:21:05.730Z,43.29
2024-04-22T12:23:33.414Z,42.42
2024-04-22T12:26:02.087Z,42.54
2024-04-22T12:28:29.360Z,42.57
2024-04-22T12:30:56.542Z,42.50
2024-04-22T12:33:23.766Z,42.37
2024-04-22T12:35:51.642Z,42.54
2024-04-22T12:38:18.705Z,42.83
2024-04-22T12:40:45.787Z,42.81
2024-04-22T12:43:12.988Z,41.85
2024-04-22T12:45:41.666Z,40.26
2024-04-22T12:48:44.459Z,39.59
2024-04-22T12:51:12.059Z,38.86
2024-04-22T12:53:39.139Z,37.72
2024-04-22T12:56:06.952Z,39.38
2024-04-22T12:58:38.147Z,38.94
2024-04-22T13:01:06.364Z,41.59
2024-04-22T13:03:34.379Z,40.99
2024-04-22T13:06:02.866Z,40.83
2024-04-22T13:08:30.115Z,39.82
2024-04-22T13:10:58.912Z,38.42
2024-04-22T13:13:26.251Z,38.12
2024-04-22T13:15:53.511Z,38.77
2024-04-22T13:18:21.699Z,39.32
2024-04-22T13:20:49.427Z,38.70
2024-04-22T13:23:16.634Z,39.45
2024-04-22T13:25:44.588Z,39.25
2024-04-22T13:28:11.895Z,39.10
2024-04-22T13:30:43.923Z,39.28
2024-04-22T13:33:11.397Z,40.52
2024-04-22T13:35:38.531Z,40.55
2024-04-22T13:38:05.781Z,39.96
2024-04-22T13:40:33.459Z,39.58
2024-04-22T13:43:00.485Z,40.65
2024-04-22T13:45:27.708Z,40.10
2024-04-22T13:47:54.814Z,40.35
2024-04-22T13:50:21.838Z,40.79
2024-04-22T13:52:50.346Z,41.80
2024-04-22T13:55:19.847Z,41.70
2024-04-22T13:57:48.624Z,41.39
2024-04-22T14:00:15.814Z,41.31
2024-04-22T14:02:43.450Z,41.43
2024-04-22T14:05:10.633Z,41.80
2024-04-22T14:07:37.703Z,41.62
2024-04-22T14:10:08.557Z,41.76
2024-04-22T14:12:36.619Z,43.64
2024-04-22T14:15:04.209Z,42.56
2024-04-22T14:17:31.396Z,42.79
2024-04-22T14:20:00.239Z,42.78
2024-04-22T14:22:27.296Z,42.11
2024-04-22T14:24:54.293Z,42.41
2024-04-22T14:27:21.365Z,42.57
2024-04-22T14:29:48.345Z,43.43
2024-04-22T14:32:15.388Z,46.24
2024-04-22T14:34:42.388Z,46.99
2024-04-22T14:37:12.757Z,46.95
2024-04-22T14:39:39.982Z,46.55
2024-04-22T14:42:07.227Z,46.30
2024-04-22T14:44:39.138Z,47.79
2024-04-22T14:47:07.823Z,47.93
2024-04-22T14:49:34.850Z,47.94
2024-04-22T14:52:01.871Z,49.88
2024-04-22T14:54:29.072Z,51.10
2024-04-22T14:56:56.278Z,53.73
2024-04-22T14:59:23.401Z,55.00
2024-04-22T15:01:52.303Z,56.41
2024-04-22T15:04:19.734Z,57.60
2024-04-22T15:06:47.938Z,57.99
2024-04-22T15:09:14.766Z,58.52
2024-04-22T15:11:41.660Z,58.86
2024-04-22T15:14:08.345Z,59.24
2024-04-22T15:16:35.014Z,59.10
2024-04-22T15:19:02.045Z,59.57
2024-04-22T15:21:28.792Z,60.29
2024-04-22T15:23:55.466Z,60.29
2024-04-22T15:26:22.162Z,60.98
2024-04-22T15:28:50.321Z,61.20
2024-04-22T15:31:17.535Z,61.83
2024-04-22T15:33:44.595Z,62.03
2024-04-22T15:36:11.416Z,61.01
2024-04-22T15:38:38.090Z,61.14
2024-04-22T15:41:04.888Z,61.24
2024-04-22T15:43:31.599Z,60.47
2024-04-22T15:45:58.283Z,61.00
2024-04-22T15:48:25.386Z,61.27
2024-04-22T15:50:52.189Z,63.16
2024-04-22T15:53:18.952Z,62.28
2024-04-22T15:55:56.608Z,62.29
2024-04-22T15:58:23.858Z,62.53
2024-04-22T16:00:51.730Z,62.85
2024-04-22T16:03:19.289Z,61.98
2024-04-22T16:05:46.307Z,62.84
2024-04-22T16:08:13.973Z,62.69
2024-04-22T16:10:43.517Z,63.54
2024-04-22T16:13:10.230Z,63.25
2024-04-22T16:15:36.906Z,62.75
2024-04-22T16:18:03.911Z,63.63
2024-04-22T16:20:30.583Z,64.34
2024-04-22T16:22:57.234Z,63.76
2024-04-22T16:25:26.189Z,63.06
2024-04-22T16:27:53.423Z,63.10
2024-04-22T16:30:20.157Z,63.14
2024-04-22T16:32:46.953Z,62.67
2024-04-22T16:35:13.726Z,62.14
2024-04-22T16:37:41.639Z,62.30
2024-04-22T16:40:08.944Z,62.29
2024-04-22T16:42:36.095Z,61.98
2024-04-22T16:45:02.724Z,62.35
2024-04-22T16:47:29.494Z,62.21
2024-04-22T16:49:56.231Z,62.19
2024-04-22T16:52:23.019Z,62.10
2024-04-22T16:54:49.740Z,62.30
2024-04-22T16:57:16.456Z,63.42
2024-04-22T16:59:44.793Z,62.65
2024-04-22T17:02:11.647Z,62.95
2024-04-22T17:04:38.373Z,62.34
2024-04-22T17:07:05.600Z,62.52
2024-04-22T17:09:32.604Z,62.83
2024-04-22T17:11:59.580Z,62.40
2024-04-22T17:14:26.990Z,62.30
2024-04-22T17:16:54.266Z,62.34
2024-04-22T17:19:21.726Z,62.36
2024-04-22T17:21:48.774Z,62.29
2024-04-22T17:24:15.804Z,62.40
2024-04-22T17:26:43.079Z,62.13
2024-04-22T17:29:13.008Z,61.97
2024-04-22T17:31:40.106Z,61.95
2024-04-22T17:34:08.358Z,62.37
2024-04-22T17:36:35.357Z,62.48
2024-04-22T17:39:02.353Z,62.88
2024-04-22T17:41:29.453Z,63.19
2024-04-22T17:43:56.502Z,63.09
2024-04-22T17:46:23.507Z,63.47
2024-04-22T17:48:50.562Z,63.96
2024-04-22T17:51:18.756Z,64.07
2024-04-22T17:53:45.808Z,64.64
2024-04-22T17:56:16.675Z,65.53
2024-04-22T17:58:44.435Z,66.22
2024-04-22T18:01:11.226Z,66.07
2024-04-22T18:03:38.661Z,66.12
2024-04-22T18:06:06.404Z,66.57
2024-04-22T18:08:33.222Z,66.87
2024-04-22T18:11:00.059Z,67.73
2024-04-22T18:13:29.112Z,68.18
2024-04-22T18:15:56.621Z,68.53
2024-04-22T18:18:23.351Z,68.41
2024-04-22T18:20:50.201Z,68.56
2024-04-22T18:23:17.168Z,68.33
2024-04-22T18:25:46.875Z,68.79
2024-04-22T18:28:13.564Z,68.55
2024-04-22T18:30:44.878Z,68.14
2024-04-22T18:33:15.381Z,67.92
2024-04-22T18:35:44.534Z,68.37
2024-04-22T18:38:11.625Z,68.58
2024-04-22T18:40:40.739Z,68.97
2024-04-22T18:43:07.552Z,69.38
2024-04-22T18:45:34.756Z,69.35
2024-04-22T18:48:01.642Z,69.38
2024-04-22T18:50:28.426Z,69.11
2024-04-22T18:52:55.148Z,69.46
2024-04-22T18:55:21.861Z,69.64
2024-04-22T18:57:48.608Z,69.86
2024-04-22T19:00:15.514Z,69.83
2024-04-22T19:02:42.244Z,70.28
2024-04-22T19:05:08.897Z,70.86
2024-04-22T19:07:36.702Z,71.16
2024-04-22T19:10:04.387Z,71.53
2024-04-22T19:12:31.076Z,71.63
2024-04-22T19:14:57.835Z,71.46
2024-04-22T19:17:24.666Z,71.52
2024-04-22T19:19:51.458Z,72.40
2024-04-22T19:22:18.172Z,72.60
2024-04-22T19:24:44.942Z,72.80
2024-04-22T19:27:11.891Z,72.94
2024-04-22T19:29:38.519Z,72.43
2024-04-22T19:32:05.564Z,72.75
2024-04-22T19:34:35.431Z,72.87
2024-04-22T19:37:03.105Z,73.68
2024-04-22T19:39:30.399Z,74.03
2024-04-22T19:41:57.045Z,74.22
2024-04-22T19:44:23.708Z,74.50
2024-04-22T19:46:50.429Z,74.69
2024-04-22T19:49:17.109Z,74.86
2024-04-22T19:51:43.761Z,75.32
2024-04-22T19:54:10.737Z,76.27
2024-04-22T19:56:37.723Z,76.25
2024-04-22T19:59:04.717Z,76.68
2024-04-22T20:01:31.743Z,76.71
2024-04-22T20:03:58.822Z,76.62
2024-04-22T20:06:25.927Z,76.94
2024-04-22T20:08:53.573Z,77.14
2024-04-22T20:11:20.882Z,77.13
2024-04-22T20:13:47.905Z,77.49
2024-04-22T20:16:19.756Z,77.46
2024-04-22T20:19:00.345Z,77.86
2024-04-22T20:21:27.679Z,77.84
2024-04-22T20:23:54.883Z,77.82
2024-04-22T20:26:22.506Z,78.26
2024-04-22T20:28:53.054Z,78.45
2024-04-22T20:31:22.191Z,78.84
2024-04-22T20:33:49.482Z,79.07
2024-04-22T20:36:16.636Z,79.18
2024-04-22T20:38:43.597Z,79.37
2024-04-22T20:41:10.675Z,79.26
2024-04-22T20:43:37.755Z,79.46
2024-04-22T20:46:05.124Z,79.44
2024-04-22T20:48:38.740Z,80.06
2024-04-22T20:51:10.166Z,79.49
2024-04-22T20:53:37.298Z,79.55
2024-04-22T20:56:05.683Z,79.68
2024-04-22T20:58:35.332Z,80.38
2024-04-22T21:01:04.750Z,80.96
2024-04-22T21:03:32.499Z,80.86
2024-04-22T21:06:04.838Z,80.75
2024-04-22T21:08:33.023Z,80.96
2024-04-22T21:11:02.963Z,81.06
2024-04-22T21:13:41.216Z,81.26
2024-04-22T21:16:07.942Z,81.58
2024-04-22T21:18:34.691Z,81.35
2024-04-22T21:21:04.325Z,81.68
2024-04-22T21:23:34.145Z,81.31
2024-04-22T21:26:00.954Z,82.23
2024-04-22T21:28:27.830Z,82.39
2024-04-22T21:30:54.544Z,82.32
2024-04-22T21:33:35.414Z,82.67
2024-04-22T21:36:08.165Z,82.88
2024-04-22T21:38:34.866Z,82.84
2024-04-22T21:41:01.538Z,83.11
2024-04-22T21:43:28.325Z,82.86
2024-04-22T21:45:55.117Z,82.51
2024-04-22T21:48:24.718Z,82.44
2024-04-22T21:50:52.824Z,82.47
2024-04-22T21:53:20.358Z,82.69
2024-04-22T21:55:50.143Z,81.87
2024-04-22T21:58:54.825Z,82.42
2024-04-22T22:01:59.262Z,82.22
2024-04-22T22:05:03.723Z,81.63
2024-04-22T22:07:30.372Z,82.35
2024-04-22T22:09:57.092Z,81.47
2024-04-22T22:12:24.666Z,82.35
2024-04-22T22:14:52.593Z,82.89
2024-04-22T22:17:19.788Z,82.58
2024-04-22T22:19:49.074Z,83.42
2024-04-22T22:22:16.362Z,83.28
2024-04-22T22:24:44.183Z,83.28
2024-04-22T22:27:12.856Z,83.56
2024-04-22T22:29:39.699Z,84.21
2024-04-22T22:32:06.737Z,83.91
2024-04-22T22:34:33.551Z,84.56
2024-04-22T22:37:01.591Z,84.47
2024-04-22T22:39:28.433Z,84.91
2024-04-22T22:41:55.853Z,85.48
2024-04-22T22:44:23.547Z,85.89
2024-04-22T22:46:50.352Z,86.44
2024-04-22T22:49:17.047Z,85.88
2024-04-22T22:51:43.697Z,86.00
2024-04-22T22:54:10.369Z,85.58
2024-04-22T22:56:37.060Z,85.86
2024-04-22T22:59:03.756Z,86.39
2024-04-22T23:01:30.452Z,86.83
2024-04-22T23:03:57.220Z,86.63
2024-04-22T23:06:23.900Z,86.59
2024-04-22T23:08:50.890Z,86.93
2024-04-22T23:11:17.963Z,87.41
2024-04-22T23:13:45.021Z,87.67
2024-04-22T23:16:13.376Z,87.66
2024-04-22T23:18:40.385Z,87.15
2024-04-22T23:21:07.372Z,88.20
2024-04-22T23:23:34.371Z,87.60
2024-04-22T23:26:01.422Z,87.48
2024-04-22T23:28:28.461Z,88.25
2024-04-22T23:30:55.410Z,87.17
2024-04-22T23:33:22.463Z,88.12
2024-04-22T23:35:49.504Z,87.50
2024-04-22T23:38:16.470Z,87.56
2024-04-22T23:40:43.465Z,86.92
2024-04-22T23:43:10.483Z,87.67
2024-04-22T23:45:37.516Z,87.39
2024-04-22T23:48:04.685Z,87.17
2024-04-22T23:50:31.679Z,87.31
2024-04-22T23:52:58.766Z,87.31
2024-04-22T23:55:25.836Z,87.17
2024-04-22T23:57:52.841Z,87.35
